createdAt,value
2019-04-23T00:00:23.853Z,14.70
2019-04-23T00:02:58.621Z,14.70
2019-04-23T00:08:12.297Z,14.70
2019-04-23T00:10:54.822Z,14.60
2019-04-23T00:13:12.882Z,14.50
2019-04-23T00:15:55.293Z,14.40
2019-04-23T00:18:28.264Z,14.40
2019-04-23T00:20:47.884Z,14.70
2019-04-23T00:23:35.074Z,14.60
2019-04-23T00:26:10.629Z,14.70
2019-04-23T00:28:31.414Z,14.70
2019-04-23T00:33:30.255Z,14.50
2019-04-23T00:35:55.184Z,14.50
2019-04-23T00:38:38.387Z,14.50
2019-04-23T00:41:02.883Z,14.50
2019-04-23T00:43:41.010Z,14.40
2019-04-23T00:46:06.263Z,14.30
2019-04-23T00:48:43.917Z,14.40
2019-04-23T00:51:02.296Z,14.40
2019-04-23T00:53:40.154Z,14.40
2019-04-23T00:56:25.244Z,14.30
2019-04-23T00:58:51.010Z,14.40
2019-04-23T01:01:11.357Z,14.50
2019-04-23T01:03:48.278Z,14.50
2019-04-23T01:06:19.370Z,14.50
2019-04-23T01:08:52.393Z,14.50
2019-04-23T01:11:19.888Z,14.40
2019-04-23T01:13:49.554Z,14.20
2019-04-23T01:16:26.273Z,14.20
2019-04-23T01:18:54.430Z,14.20
2019-04-23T01:21:07.767Z,14.10
2019-04-23T01:24:00.315Z,14.20
2019-04-23T01:26:50.016Z,14.20
2019-04-23T01:29:33.355Z,14.20
2019-04-23T01:32:02.810Z,14.20
2019-04-23T01:34:31.506Z,14.10
2019-04-23T01:36:58.963Z,14.10
2019-04-23T01:39:27.787Z,14.10
2019-04-23T01:42:12.944Z,14.00
2019-04-23T01:47:12.462Z,14.00
2019-04-23T01:49:45.288Z,14.10
2019-04-23T01:52:14.601Z,14.10
2019-04-23T01:54:45.750Z,14.00
2019-04-23T01:57:21.199Z,14.00
2019-04-23T01:59:46.183Z,13.90
2019-04-23T02:02:19.436Z,13.80
2019-04-23T02:04:52.629Z,13.70
2019-04-23T02:07:27.659Z,13.80
2019-04-23T02:09:55.529Z,13.80
2019-04-23T02:12:28.527Z,13.90
2019-04-23T02:14:59.379Z,13.90
2019-04-23T02:17:36.266Z,13.80
2019-04-23T02:20:01.440Z,13.90
2019-04-23T02:22:54.300Z,13.80
2019-04-23T02:25:28.061Z,13.70
2019-04-23T02:27:58.279Z,13.50
2019-04-23T02:30:40.164Z,13.50
2019-04-23T02:33:11.889Z,13.40
2019-04-23T02:35:50.532Z,13.50
2019-04-23T02:40:44.677Z,13.50
2019-04-23T02:43:08.860Z,13.40
2019-04-23T02:45:41.008Z,13.40
2019-04-23T02:48:11.065Z,13.40
2019-04-23T02:53:14.810Z,13.40
2019-04-23T02:55:43.265Z,13.30
2019-04-23T02:58:18.695Z,13.30
2019-04-23T03:01:04.365Z,13.40
2019-04-23T03:03:38.413Z,13.40
2019-04-23T03:08:22.584Z,13.80
2019-04-23T03:11:04.717Z,13.70
2019-04-23T03:27:10.347Z,13.10
2019-04-23T03:29:40.544Z,12.90
2019-04-23T03:39:50.011Z,12.90
2019-04-23T03:44:47.847Z,12.90
2019-04-23T03:47:11.319Z,12.90
2019-04-23T03:52:25.572Z,12.70
2019-04-23T03:54:54.372Z,12.70
2019-04-23T04:02:33.410Z,12.90
2019-04-23T04:07:28.287Z,12.80
2019-04-23T04:15:21.238Z,12.90
2019-04-23T04:17:45.113Z,12.90
2019-04-23T04:22:37.470Z,12.50
2019-04-23T04:25:06.714Z,12.50
2019-04-23T04:30:23.662Z,12.80
2019-04-23T04:32:43.224Z,13.00
2019-04-23T04:35:18.681Z,12.90
2019-04-23T04:40:29.302Z,12.60
2019-04-23T04:42:45.045Z,12.80
2019-04-23T04:45:20.803Z,13.00
2019-04-23T04:47:44.946Z,13.20
2019-04-23T04:50:35.238Z,13.10
2019-04-23T04:55:28.349Z,12.80
2019-04-23T04:57:54.045Z,12.50
2019-04-23T05:05:53.061Z,12.50
2019-04-23T05:08:00.879Z,12.50
2019-04-23T05:13:25.743Z,12.50
2019-04-23T05:15:32.335Z,12.40
2019-04-23T05:20:56.405Z,12.50
2019-04-23T05:23:33.490Z,12.50
2019-04-23T05:25:51.265Z,12.70
2019-04-23T05:28:25.007Z,12.70
2019-04-23T05:31:00.010Z,12.60
2019-04-23T05:33:21.864Z,12.70
2019-04-23T05:38:43.208Z,12.80
2019-04-23T05:41:10.124Z,13.00
2019-04-23T05:43:32.835Z,13.10
2019-04-23T05:46:16.048Z,13.10
2019-04-23T05:48:40.363Z,13.40
2019-04-23T05:51:24.275Z,13.40
2019-04-23T05:53:47.291Z,13.30
2019-04-23T05:56:15.277Z,13.50
2019-04-23T05:59:07.316Z,13.50
2019-04-23T06:06:45.170Z,13.70
2019-04-23T06:09:14.061Z,13.80
2019-04-23T06:14:18.717Z,14.30
2019-04-23T06:16:51.168Z,14.40
2019-04-23T06:19:17.122Z,14.50
2019-04-23T06:31:55.225Z,15.10
2019-04-23T06:34:31.295Z,15.20
2019-04-23T06:37:02.189Z,15.30
2019-04-23T06:39:36.974Z,15.50
2019-04-23T06:42:08.364Z,15.70
2019-04-23T06:44:51.702Z,15.90
2019-04-23T06:49:54.511Z,15.90
2019-04-23T06:55:09.008Z,15.80
2019-04-23T06:57:22.256Z,15.90
2019-04-23T06:59:55.201Z,16.10
2019-04-23T07:02:35.252Z,16.20
2019-04-23T07:10:07.764Z,16.50
2019-04-23T07:12:38.601Z,16.70
2019-04-23T07:15:16.395Z,17.20
2019-04-23T07:17:34.316Z,17.00
2019-04-23T07:20:13.216Z,16.80
2019-04-23T07:22:43.144Z,16.90
2019-04-23T07:25:20.421Z,17.00
2019-04-23T07:27:51.107Z,16.90
2019-04-23T07:30:31.590Z,17.30
2019-04-23T07:33:38.209Z,17.60
2019-04-23T07:35:47.662Z,17.70
2019-04-23T07:39:09.772Z,17.80
2019-04-23T07:41:23.711Z,18.00
2019-04-23T07:44:08.558Z,17.90
2019-04-23T07:49:08.404Z,18.00
2019-04-23T07:51:39.340Z,18.10
2019-04-23T07:54:10.991Z,18.40
2019-04-23T07:56:42.195Z,18.80
2019-04-23T07:59:13.917Z,18.90
2019-04-23T08:01:47.109Z,19.60
2019-04-23T08:04:16.616Z,19.50
2019-04-23T08:06:50.614Z,19.30
2019-04-23T08:09:22.332Z,18.90
2019-04-23T08:12:02.903Z,19.40
2019-04-23T08:14:12.985Z,19.60
2019-04-23T08:16:43.832Z,19.50
2019-04-23T08:19:25.567Z,19.60
2019-04-23T08:22:05.065Z,19.50
2019-04-23T08:24:45.272Z,19.40
2019-04-23T08:27:15.315Z,19.70
2019-04-23T08:29:45.857Z,19.90
2019-04-23T08:37:36.400Z,20.50
2019-04-23T08:40:08.185Z,21.20
2019-04-23T08:48:07.857Z,21.60
2019-04-23T08:50:34.070Z,21.30
2019-04-23T08:53:17.788Z,20.60
2019-04-23T08:55:39.922Z,20.80
2019-04-23T08:58:13.384Z,21.40
2019-04-23T09:05:52.979Z,21.20
2019-04-23T09:11:04.645Z,21.60
2019-04-23T09:13:51.691Z,21.50
2019-04-23T09:16:05.300Z,21.50
2019-04-23T09:18:32.611Z,21.20
2019-04-23T09:21:03.029Z,21.20
2019-04-23T09:26:02.321Z,20.80
2019-04-23T09:28:45.707Z,21.00
2019-04-23T09:31:38.619Z,21.40
2019-04-23T09:36:38.021Z,22.00
2019-04-23T09:39:06.351Z,22.00
2019-04-23T09:41:31.274Z,22.80
2019-04-23T09:45:26.925Z,23.20
2019-04-23T09:46:55.552Z,23.40
2019-04-23T09:49:31.092Z,23.10
2019-04-23T09:52:05.663Z,22.90
2019-04-23T09:56:52.772Z,22.70
2019-04-23T09:59:33.859Z,22.20
2019-04-23T10:01:49.890Z,22.50
2019-04-23T10:04:20.891Z,22.90
2019-04-23T10:06:39.053Z,22.70
2019-04-23T10:09:11.801Z,22.80
2019-04-23T10:11:41.096Z,23.00
2019-04-23T10:14:12.314Z,22.70
2019-04-23T10:16:43.375Z,22.50
2019-04-23T10:19:14.980Z,22.50
2019-04-23T10:21:46.977Z,22.60
2019-04-23T10:24:16.977Z,22.60
2019-04-23T10:26:48.144Z,22.50
2019-04-23T10:29:23.767Z,22.70
2019-04-23T10:31:55.425Z,22.90
2019-04-23T10:34:25.455Z,22.90
2019-04-23T10:36:55.728Z,23.20
2019-04-23T10:39:31.769Z,23.30
2019-04-23T10:42:01.209Z,23.20
2019-04-23T10:44:48.803Z,23.30
2019-04-23T10:48:12.396Z,23.40
2019-04-23T10:51:04.433Z,24.40
2019-04-23T10:56:00.721Z,23.20
2019-04-23T10:58:30.413Z,23.00
2019-04-23T11:01:00.230Z,23.20
2019-04-23T11:03:52.037Z,23.40
2019-04-23T11:08:34.820Z,23.80
2019-04-23T11:11:09.380Z,23.40
2019-04-23T11:13:38.363Z,23.60
2019-04-23T11:16:43.943Z,23.50
2019-04-23T11:18:52.272Z,23.20
2019-04-23T11:23:51.782Z,23.60
2019-04-23T11:26:26.483Z,23.90
2019-04-23T11:28:46.194Z,24.10
2019-04-23T11:31:31.116Z,23.60
2019-04-23T11:34:01.025Z,23.20
2019-04-23T11:39:12.299Z,23.70
2019-04-23T11:41:34.882Z,23.80
2019-04-23T11:44:03.968Z,23.50
2019-04-23T11:46:48.482Z,23.00
2019-04-23T11:54:10.281Z,22.80
2019-04-23T11:57:09.278Z,23.20
2019-04-23T11:59:16.343Z,23.40
2019-04-23T12:04:40.713Z,23.20
2019-04-23T12:07:17.580Z,22.60
2019-04-23T12:09:48.800Z,22.40
2019-04-23T12:17:29.452Z,23.50
2019-04-23T12:30:00.856Z,22.10
2019-04-23T12:32:48.416Z,22.00
2019-04-23T12:35:19.279Z,22.30
2019-04-23T12:40:20.713Z,22.10
2019-04-23T12:53:03.703Z,21.40
2019-04-23T12:55:39.957Z,21.40
2019-04-23T13:02:57.157Z,21.00
2019-04-23T13:05:36.017Z,20.90
2019-04-23T13:08:08.235Z,20.70
2019-04-23T13:10:38.779Z,20.70
2019-04-23T13:13:18.884Z,21.00
2019-04-23T13:18:15.430Z,21.00
2019-04-23T13:23:16.552Z,20.80
2019-04-23T13:28:21.236Z,20.80
2019-04-23T13:33:35.506Z,20.40
2019-04-23T13:38:33.183Z,20.30
2019-04-23T13:48:24.842Z,20.40
2019-04-23T13:51:06.631Z,20.30
2019-04-23T13:58:43.735Z,20.00
2019-04-23T14:01:21.935Z,19.90
2019-04-23T14:06:23.175Z,20.00
2019-04-23T14:11:23.625Z,19.80
2019-04-23T14:16:44.638Z,19.70
2019-04-23T14:18:58.537Z,19.50
2019-04-23T14:24:19.549Z,19.50
2019-04-23T14:26:38.256Z,19.50
2019-04-23T14:28:59.313Z,19.40
2019-04-23T14:31:30.295Z,19.40
2019-04-23T14:34:04.818Z,19.30
2019-04-23T14:36:36.390Z,19.20
2019-04-23T14:39:06.117Z,19.00
2019-04-23T14:41:31.903Z,18.80
2019-04-23T14:44:17.998Z,18.80
2019-04-23T14:49:13.161Z,18.60
2019-04-23T14:54:34.547Z,18.60
2019-04-23T14:56:59.034Z,18.50
2019-04-23T14:59:14.970Z,18.50
2019-04-23T15:01:55.019Z,18.50
2019-04-23T15:04:33.614Z,18.60
2019-04-23T15:09:37.083Z,18.70
2019-04-23T15:12:15.774Z,18.60
2019-04-23T15:14:47.925Z,18.50
2019-04-23T15:17:05.546Z,18.40
2019-04-23T15:19:53.056Z,18.10
2019-04-23T15:22:17.519Z,18.10
2019-04-23T15:25:13.641Z,18.10
2019-04-23T15:27:57.960Z,18.10
2019-04-23T15:29:31.884Z,18.00
2019-04-23T15:32:19.910Z,18.10
2019-04-23T15:35:01.215Z,18.10
2019-04-23T15:40:02.433Z,18.10
2019-04-23T15:42:26.701Z,18.10
2019-04-23T15:45:04.470Z,18.10
2019-04-23T15:50:14.503Z,18.00
2019-04-23T15:52:40.129Z,17.90
2019-04-23T15:55:03.688Z,17.90
2019-04-23T15:57:54.366Z,17.90
2019-04-23T15:59:58.901Z,17.90
2019-04-23T16:02:08.086Z,17.90
2019-04-23T16:04:37.977Z,17.90
2019-04-23T16:07:09.859Z,17.90
2019-04-23T16:10:11.021Z,17.90
2019-04-23T16:12:50.667Z,18.00
2019-04-23T16:15:14.500Z,18.00
2019-04-23T16:17:41.906Z,17.90
2019-04-23T16:20:29.653Z,17.70
2019-04-23T16:22:44.568Z,17.70
2019-04-23T16:25:17.428Z,17.70
2019-04-23T16:27:56.382Z,17.80
2019-04-23T16:35:35.948Z,17.90
2019-04-23T16:38:18.398Z,17.80
2019-04-23T16:40:37.562Z,17.90
2019-04-23T16:43:08.975Z,18.00
2019-04-23T16:45:41.069Z,18.00
2019-04-23T16:51:11.948Z,17.70
2019-04-23T16:53:20.977Z,17.70
2019-04-23T16:55:55.089Z,17.60
2019-04-23T16:58:26.441Z,17.50
2019-04-23T17:01:00.764Z,17.40
2019-04-23T17:03:26.485Z,17.40
2019-04-23T17:05:57.068Z,17.30
2019-04-23T17:11:00.078Z,17.30
2019-04-23T17:13:37.773Z,17.30
2019-04-23T17:16:06.854Z,17.30
2019-04-23T17:18:31.911Z,17.30
2019-04-23T17:23:39.686Z,17.20
2019-04-23T17:28:51.742Z,17.00
2019-04-23T17:36:28.391Z,17.00
2019-04-23T17:38:55.297Z,16.90
2019-04-23T17:41:31.184Z,17.00
2019-04-23T17:44:34.376Z,17.10
2019-04-23T17:46:50.597Z,17.10
2019-04-23T17:51:57.646Z,17.20
2019-04-23T17:54:26.971Z,17.20
2019-04-23T17:57:07.647Z,17.00
2019-04-23T18:00:05.396Z,17.00
2019-04-23T18:05:02.431Z,17.10
2019-04-23T18:10:27.461Z,16.90
2019-04-23T18:15:39.637Z,17.10
2019-04-23T18:18:16.614Z,17.00
2019-04-23T18:21:03.467Z,17.00
2019-04-23T18:23:34.690Z,17.00
2019-04-23T18:26:22.625Z,17.10
2019-04-23T18:29:04.533Z,17.20
2019-04-23T18:31:46.889Z,17.20
2019-04-23T18:34:08.617Z,17.20
2019-04-23T18:36:32.878Z,17.20
2019-04-23T18:39:09.410Z,17.20
2019-04-23T18:41:31.423Z,17.40
2019-04-23T18:44:16.166Z,17.30
2019-04-23T18:46:43.519Z,17.20
2019-04-23T18:49:33.167Z,17.30
2019-04-23T18:51:55.084Z,17.30
2019-04-23T18:54:14.393Z,17.30
2019-04-23T18:57:06.596Z,17.50
2019-04-23T18:59:32.798Z,17.50
2019-04-23T19:02:06.693Z,17.50
2019-04-23T19:07:34.893Z,17.40
2019-04-23T19:10:12.226Z,17.40
2019-04-23T19:15:04.009Z,17.40
2019-04-23T19:17:48.261Z,17.40
2019-04-23T19:20:29.775Z,17.40
2019-04-23T19:22:58.573Z,17.40
2019-04-23T19:25:33.792Z,17.50
2019-04-23T19:28:15.573Z,17.40
2019-04-23T19:30:53.842Z,17.50
2019-04-23T19:38:43.467Z,17.70
2019-04-23T19:41:25.458Z,17.80
2019-04-23T19:44:06.328Z,17.80
2019-04-23T19:46:48.907Z,18.00
2019-04-23T19:49:18.982Z,18.10
2019-04-23T19:51:53.605Z,18.00
2019-04-23T19:54:54.186Z,17.90
2019-04-23T19:57:26.788Z,17.90
2019-04-23T20:02:37.204Z,17.90
2019-04-23T20:05:13.720Z,18.00
2019-04-23T20:07:48.936Z,17.90
2019-04-23T20:10:12.580Z,17.90
2019-04-23T20:12:46.535Z,17.70
2019-04-23T20:15:30.933Z,17.60
2019-04-23T20:18:29.408Z,17.50
2019-04-23T20:20:49.523Z,17.40
2019-04-23T20:23:38.336Z,17.50
2019-04-23T20:32:27.348Z,17.50
2019-04-23T20:36:46.130Z,17.20
2019-04-23T20:42:12.206Z,17.00
2019-04-23T20:44:39.152Z,17.00
2019-04-23T20:52:10.574Z,17.00
2019-04-23T20:57:40.032Z,17.20
2019-04-23T21:00:08.940Z,17.00
2019-04-23T21:05:21.454Z,16.90
2019-04-23T21:10:44.819Z,16.80
2019-04-23T21:13:29.399Z,16.70
2019-04-23T21:16:09.000Z,16.70
2019-04-23T21:21:13.313Z,16.70
2019-04-23T21:23:51.077Z,16.70
2019-04-23T21:26:17.540Z,16.50
2019-04-23T21:29:15.281Z,16.40
2019-04-23T21:31:53.793Z,16.50
2019-04-23T21:34:24.919Z,16.30
2019-04-23T21:37:10.980Z,16.50
2019-04-23T21:40:04.725Z,16.30
2019-04-23T21:45:09.063Z,16.20
2019-04-23T21:47:48.149Z,16.30
2019-04-23T21:50:29.489Z,16.30
2019-04-23T21:55:34.147Z,16.10
2019-04-23T22:00:57.045Z,16.00
2019-04-23T22:03:19.663Z,16.00
2019-04-23T22:06:07.168Z,16.10
2019-04-23T22:08:28.994Z,16.00
2019-04-23T22:11:25.248Z,16.00
2019-04-23T22:13:51.562Z,16.00
2019-04-23T22:16:27.757Z,16.10
2019-04-23T22:19:07.228Z,16.10
2019-04-23T22:21:33.184Z,16.00
2019-04-23T22:24:13.992Z,16.00
2019-04-23T22:26:34.847Z,15.90
2019-04-23T22:29:14.258Z,15.80
2019-04-23T22:36:52.820Z,16.30
2019-04-23T22:42:08.550Z,16.20
2019-04-23T22:44:44.590Z,16.00
2019-04-23T22:47:14.114Z,16.10
2019-04-23T22:49:45.238Z,16.00
2019-04-23T22:52:16.464Z,16.20
2019-04-23T22:54:51.726Z,16.60
2019-04-23T22:57:09.553Z,16.40
2019-04-23T23:00:00.714Z,16.10
2019-04-23T23:02:52.714Z,15.70
2019-04-23T23:05:22.421Z,15.70
2019-04-23T23:07:48.842Z,15.60
2019-04-23T23:12:53.269Z,15.90
2019-04-23T23:17:52.638Z,15.90
2019-04-23T23:23:01.831Z,15.70
2019-04-23T23:30:23.232Z,15.70
2019-04-23T23:32:57.272Z,15.60
2019-04-23T23:35:38.699Z,15.60
2019-04-23T23:37:59.116Z,15.60
2019-04-23T23:40:25.654Z,15.90
2019-04-23T23:43:13.938Z,16.00
2019-04-23T23:47:58.637Z,15.90
2019-04-23T23:50:35.454Z,15.80
2019-04-23T23:53:12.313Z,15.80
2019-04-23T23:55:37.984Z,15.80
2019-04-23T23:58:20.412Z,15.60
